Decoded Metar for UBBG (GYANDZHA in RUSSIA) (IATA:N/A) | Meteo·Mobile Aviation Weather
aviador You're here:

UBBG Decoded Metar

GYANDZHA in RUSSIA
Report Time2019-01-18 11:00:00
UTC Time2019-01-18 11:20:38
Flight Rules vfr VFR
Wind070° at 08 kt
W.Decomp.*RWY 12: 4.7 kt HW 6.5 kt LCW
W.Rank070° ranks 10
Current wind is above 070° avg. (6.4)
Visibility9999 m
Phenomena:N/A
Clouds:Broken 067 Hf
Expected CloudBase > 2,800 ft AGL from Temp-Dew spread
Ceiling6,700 ft
Temp07°C (ISA -6)
Dew Point00°C (61% RH)
AAT2.1°C
QNH1020 hPa
Density Alt233 ft
Elevation1,083 ft
Report Wrong Elevation
Raw Report
UBBG 181100Z 07008KT 030V100 9999 BKN067 07/M00 Q1020 R30/CLRD//
NOSIG=

Extra information for UBBG:More info

Metar Taf Metar & Taf Last 4 Metars F.Rules Stats Wind Profile Meteogram Temp Stats Airport Information Weather charts Add Link Nearby VenuesMetar ALERT Operation Metar Decoded Social comments